sensor_id;sensor_type;location;lat;lon;timestamp;temperature;humidity
3190;DHT22;1606;51.946;10.558;2022-07-29T00:01:57;20.20;75.10
3190;DHT22;1606;51.946;10.558;2022-07-29T00:04:26;20.20;75.00
3190;DHT22;1606;51.946;10.558;2022-07-29T00:06:54;20.10;76.00
3190;DHT22;1606;51.946;10.558;2022-07-29T00:09:22;20.00;76.30
3190;DHT22;1606;51.946;10.558;2022-07-29T00:11:50;20.00;76.60
3190;DHT22;1606;51.946;10.558;2022-07-29T00:14:18;19.90;75.10
3190;DHT22;1606;51.946;10.558;2022-07-29T00:16:45;19.80;76.70
3190;DHT22;1606;51.946;10.558;2022-07-29T00:19:13;19.80;76.20
3190;DHT22;1606;51.946;10.558;2022-07-29T00:21:43;19.70;74.30
3190;DHT22;1606;51.946;10.558;2022-07-29T00:24:11;19.70;73.50
3190;DHT22;1606;51.946;10.558;2022-07-29T00:26:39;19.80;73.70
3190;DHT22;1606;51.946;10.558;2022-07-29T00:29:07;19.90;72.90
3190;DHT22;1606;51.946;10.558;2022-07-29T00:31:55;19.90;72.60
3190;DHT22;1606;51.946;10.558;2022-07-29T00:34:23;19.90;72.80
3190;DHT22;1606;51.946;10.558;2022-07-29T00:37:09;19.90;72.60
3190;DHT22;1606;51.946;10.558;2022-07-29T00:39:37;20.00;73.10
3190;DHT22;1606;51.946;10.558;2022-07-29T00:42:05;20.10;72.40
3190;DHT22;1606;51.946;10.558;2022-07-29T00:44:37;20.30;71.90
3190;DHT22;1606;51.946;10.558;2022-07-29T00:47:05;20.40;71.90
3190;DHT22;1606;51.946;10.558;2022-07-29T00:49:33;20.40;72.30
3190;DHT22;1606;51.946;10.558;2022-07-29T00:52:02;20.20;72.30
3190;DHT22;1606;51.946;10.558;2022-07-29T00:54:32;20.20;73.20
3190;DHT22;1606;51.946;10.558;2022-07-29T00:57:00;20.20;73.70
3190;DHT22;1606;51.946;10.558;2022-07-29T00:59:28;20.20;73.50
3190;DHT22;1606;51.946;10.558;2022-07-29T01:02:02;20.20;74.00
3190;DHT22;1606;51.946;10.558;2022-07-29T01:04:31;20.30;74.10
3190;DHT22;1606;51.946;10.558;2022-07-29T01:07:01;20.30;74.00
3190;DHT22;1606;51.946;10.558;2022-07-29T01:09:31;20.40;74.00
3190;DHT22;1606;51.946;10.558;2022-07-29T01:12:15;20.50;73.50
3190;DHT22;1606;51.946;10.558;2022-07-29T01:14:44;20.50;73.30
3190;DHT22;1606;51.946;10.558;2022-07-29T01:17:18;20.50;73.00
3190;DHT22;1606;51.946;10.558;2022-07-29T01:19:51;20.50;73.60
3190;DHT22;1606;51.946;10.558;2022-07-29T01:22:27;20.60;73.70
3190;DHT22;1606;51.946;10.558;2022-07-29T01:25:09;20.60;73.90
3190;DHT22;1606;51.946;10.558;2022-07-29T01:27:46;20.30;74.80
3190;DHT22;1606;51.946;10.558;2022-07-29T01:30:17;20.00;77.90
3190;DHT22;1606;51.946;10.558;2022-07-29T01:32:50;19.80;78.60
3190;DHT22;1606;51.946;10.558;2022-07-29T01:35:24;19.80;78.50
3190;DHT22;1606;51.946;10.558;2022-07-29T01:37:57;19.80;78.40
3190;DHT22;1606;51.946;10.558;2022-07-29T01:40:30;19.90;78.20
3190;DHT22;1606;51.946;10.558;2022-07-29T01:43:08;19.90;77.50
3190;DHT22;1606;51.946;10.558;2022-07-29T01:45:41;19.90;77.50
3190;DHT22;1606;51.946;10.558;2022-07-29T01:48:15;20.00;77.30
3190;DHT22;1606;51.946;10.558;2022-07-29T01:50:47;20.00;76.70
3190;DHT22;1606;51.946;10.558;2022-07-29T01:53:23;20.00;76.10
3190;DHT22;1606;51.946;10.558;2022-07-29T01:56:01;19.90;76.90
3190;DHT22;1606;51.946;10.558;2022-07-29T01:58:31;19.70;76.90
3190;DHT22;1606;51.946;10.558;2022-07-29T02:01:00;19.80;76.90
3190;DHT22;1606;51.946;10.558;2022-07-29T02:03:31;19.70;77.20
3190;DHT22;1606;51.946;10.558;2022-07-29T02:06:01;19.70;77.80
3190;DHT22;1606;51.946;10.558;2022-07-29T02:08:32;19.80;77.90
3190;DHT22;1606;51.946;10.558;2022-07-29T02:11:01;19.90;76.90
3190;DHT22;1606;51.946;10.558;2022-07-29T02:13:32;19.70;77.00
3190;DHT22;1606;51.946;10.558;2022-07-29T02:16:08;19.70;77.20
3190;DHT22;1606;51.946;10.558;2022-07-29T02:18:41;19.60;77.70
3190;DHT22;1606;51.946;10.558;2022-07-29T02:21:10;19.60;78.30
3190;DHT22;1606;51.946;10.558;2022-07-29T02:23:42;19.50;77.90
3190;DHT22;1606;51.946;10.558;2022-07-29T02:26:18;19.40;77.60
3190;DHT22;1606;51.946;10.558;2022-07-29T02:28:47;19.30;78.40
3190;DHT22;1606;51.946;10.558;2022-07-29T02:31:19;19.30;78.60
3190;DHT22;1606;51.946;10.558;2022-07-29T02:33:50;19.30;78.90
3190;DHT22;1606;51.946;10.558;2022-07-29T02:36:21;19.40;79.60
3190;DHT22;1606;51.946;10.558;2022-07-29T02:38:50;19.50;79.20
3190;DHT22;1606;51.946;10.558;2022-07-29T02:41:20;19.60;78.90
3190;DHT22;1606;51.946;10.558;2022-07-29T02:43:54;19.70;78.20
3190;DHT22;1606;51.946;10.558;2022-07-29T02:46:28;19.70;77.80
3190;DHT22;1606;51.946;10.558;2022-07-29T02:49:02;19.60;77.80
3190;DHT22;1606;51.946;10.558;2022-07-29T02:51:39;19.50;78.60
3190;DHT22;1606;51.946;10.558;2022-07-29T02:54:14;19.50;78.90
3190;DHT22;1606;51.946;10.558;2022-07-29T02:56:44;19.30;79.40
3190;DHT22;1606;51.946;10.558;2022-07-29T02:59:14;19.10;80.40
3190;DHT22;1606;51.946;10.558;2022-07-29T03:01:46;18.90;81.40
3190;DHT22;1606;51.946;10.558;2022-07-29T03:04:15;18.80;82.40
3190;DHT22;1606;51.946;10.558;2022-07-29T03:06:46;18.80;82.80
3190;DHT22;1606;51.946;10.558;2022-07-29T03:09:14;18.70;82.40
3190;DHT22;1606;51.946;10.558;2022-07-29T03:11:43;18.80;82.30
3190;DHT22;1606;51.946;10.558;2022-07-29T03:14:17;19.00;82.00
3190;DHT22;1606;51.946;10.558;2022-07-29T03:16:48;19.00;81.20
3190;DHT22;1606;51.946;10.558;2022-07-29T03:19:17;19.10;81.00
3190;DHT22;1606;51.946;10.558;2022-07-29T03:21:44;19.10;81.20
3190;DHT22;1606;51.946;10.558;2022-07-29T03:24:25;19.20;80.60
3190;DHT22;1606;51.946;10.558;2022-07-29T03:26:54;19.20;80.00
3190;DHT22;1606;51.946;10.558;2022-07-29T03:29:22;19.20;79.60
3190;DHT22;1606;51.946;10.558;2022-07-29T03:32:01;19.20;80.00
3190;DHT22;1606;51.946;10.558;2022-07-29T03:34:35;19.30;79.90
3190;DHT22;1606;51.946;10.558;2022-07-29T03:37:03;19.30;79.30
3190;DHT22;1606;51.946;10.558;2022-07-29T03:39:35;19.20;79.90
3190;DHT22;1606;51.946;10.558;2022-07-29T03:42:05;19.30;79.80
3190;DHT22;1606;51.946;10.558;2022-07-29T03:44:34;19.30;79.30
3190;DHT22;1606;51.946;10.558;2022-07-29T03:47:06;19.20;79.90
3190;DHT22;1606;51.946;10.558;2022-07-29T03:49:36;19.10;80.60
3190;DHT22;1606;51.946;10.558;2022-07-29T03:52:05;19.20;79.80
3190;DHT22;1606;51.946;10.558;2022-07-29T03:54:33;19.30;78.80
3190;DHT22;1606;51.946;10.558;2022-07-29T03:57:02;19.40;78.90
3190;DHT22;1606;51.946;10.558;2022-07-29T03:59:32;19.40;77.30
3190;DHT22;1606;51.946;10.558;2022-07-29T04:02:02;19.20;77.50
3190;DHT22;1606;51.946;10.558;2022-07-29T04:04:33;19.10;77.80
3190;DHT22;1606;51.946;10.558;2022-07-29T04:07:02;19.10;78.20
3190;DHT22;1606;51.946;10.558;2022-07-29T04:09:31;19.10;78.50
3190;DHT22;1606;51.946;10.558;2022-07-29T04:11:59;19.10;78.90
3190;DHT22;1606;51.946;10.558;2022-07-29T04:14:30;19.20;78.50
3190;DHT22;1606;51.946;10.558;2022-07-29T04:16:59;19.20;77.70
3190;DHT22;1606;51.946;10.558;2022-07-29T04:19:27;19.10;78.20
3190;DHT22;1606;51.946;10.558;2022-07-29T04:21:57;19.10;78.90
3190;DHT22;1606;51.946;10.558;2022-07-29T04:24:25;19.20;77.80
3190;DHT22;1606;51.946;10.558;2022-07-29T04:26:53;19.30;77.40
3190;DHT22;1606;51.946;10.558;2022-07-29T04:29:21;19.30;78.40
3190;DHT22;1606;51.946;10.558;2022-07-29T04:31:48;19.30;78.00
3190;DHT22;1606;51.946;10.558;2022-07-29T04:34:16;19.20;78.10
3190;DHT22;1606;51.946;10.558;2022-07-29T04:36:45;19.40;77.90
3190;DHT22;1606;51.946;10.558;2022-07-29T04:39:14;19.50;77.60
3190;DHT22;1606;51.946;10.558;2022-07-29T04:41:48;19.50;77.40
3190;DHT22;1606;51.946;10.558;2022-07-29T04:44:20;19.40;78.00
3190;DHT22;1606;51.946;10.558;2022-07-29T04:46:55;19.40;78.20
3190;DHT22;1606;51.946;10.558;2022-07-29T04:49:23;19.50;77.70
3190;DHT22;1606;51.946;10.558;2022-07-29T04:51:51;19.70;77.50
3190;DHT22;1606;51.946;10.558;2022-07-29T04:54:20;19.50;77.00
3190;DHT22;1606;51.946;10.558;2022-07-29T04:56:48;19.50;78.20
3190;DHT22;1606;51.946;10.558;2022-07-29T04:59:15;19.40;78.20
3190;DHT22;1606;51.946;10.558;2022-07-29T05:01:43;19.40;78.70
3190;DHT22;1606;51.946;10.558;2022-07-29T05:04:11;19.50;77.40
3190;DHT22;1606;51.946;10.558;2022-07-29T05:06:39;19.60;77.70
3190;DHT22;1606;51.946;10.558;2022-07-29T05:09:07;19.40;77.80
3190;DHT22;1606;51.946;10.558;2022-07-29T05:11:36;19.40;78.00
3190;DHT22;1606;51.946;10.558;2022-07-29T05:14:04;19.70;77.30
3190;DHT22;1606;51.946;10.558;2022-07-29T05:16:32;19.60;76.40
3190;DHT22;1606;51.946;10.558;2022-07-29T05:19:00;19.60;76.70
3190;DHT22;1606;51.946;10.558;2022-07-29T05:21:28;19.70;76.90
3190;DHT22;1606;51.946;10.558;2022-07-29T05:23:56;19.70;77.20
3190;DHT22;1606;51.946;10.558;2022-07-29T05:26:23;19.80;76.50
3190;DHT22;1606;51.946;10.558;2022-07-29T05:28:53;19.70;77.10
3190;DHT22;1606;51.946;10.558;2022-07-29T05:31:21;19.50;78.30
3190;DHT22;1606;51.946;10.558;2022-07-29T05:33:49;19.60;77.80
3190;DHT22;1606;51.946;10.558;2022-07-29T05:36:17;19.50;77.90
3190;DHT22;1606;51.946;10.558;2022-07-29T05:38:45;19.50;77.60
3190;DHT22;1606;51.946;10.558;2022-07-29T05:41:12;19.70;77.60
3190;DHT22;1606;51.946;10.558;2022-07-29T05:43:40;19.80;77.40
3190;DHT22;1606;51.946;10.558;2022-07-29T05:46:09;19.80;77.90
3190;DHT22;1606;51.946;10.558;2022-07-29T05:48:37;19.90;77.50
3190;DHT22;1606;51.946;10.558;2022-07-29T05:51:05;20.00;77.50
3190;DHT22;1606;51.946;10.558;2022-07-29T05:53:33;20.00;77.80
3190;DHT22;1606;51.946;10.558;2022-07-29T05:56:03;19.90;77.40
3190;DHT22;1606;51.946;10.558;2022-07-29T05:58:32;20.00;77.70
3190;DHT22;1606;51.946;10.558;2022-07-29T06:01:00;19.90;78.70
3190;DHT22;1606;51.946;10.558;2022-07-29T06:03:29;19.80;78.00
3190;DHT22;1606;51.946;10.558;2022-07-29T06:05:57;20.00;77.80
3190;DHT22;1606;51.946;10.558;2022-07-29T06:08:25;20.20;77.10
3190;DHT22;1606;51.946;10.558;2022-07-29T06:10:53;20.20;76.80
3190;DHT22;1606;51.946;10.558;2022-07-29T06:13:21;19.80;77.80
3190;DHT22;1606;51.946;10.558;2022-07-29T06:15:49;20.00;79.00
3190;DHT22;1606;51.946;10.558;2022-07-29T06:18:17;20.40;77.70
3190;DHT22;1606;51.946;10.558;2022-07-29T06:20:46;20.40;76.80
3190;DHT22;1606;51.946;10.558;2022-07-29T06:23:14;20.50;76.40
3190;DHT22;1606;51.946;10.558;2022-07-29T06:25:42;20.60;76.10
3190;DHT22;1606;51.946;10.558;2022-07-29T06:28:10;20.70;75.50
3190;DHT22;1606;51.946;10.558;2022-07-29T06:30:38;21.00;74.70
3190;DHT22;1606;51.946;10.558;2022-07-29T06:33:06;20.70;75.20
3190;DHT22;1606;51.946;10.558;2022-07-29T06:35:34;20.60;76.00
3190;DHT22;1606;51.946;10.558;2022-07-29T06:38:09;20.50;75.60
3190;DHT22;1606;51.946;10.558;2022-07-29T06:40:58;20.80;75.10
3190;DHT22;1606;51.946;10.558;2022-07-29T06:43:30;21.10;74.30
3190;DHT22;1606;51.946;10.558;2022-07-29T06:46:00;20.80;75.30
3190;DHT22;1606;51.946;10.558;2022-07-29T06:48:29;20.80;76.10
3190;DHT22;1606;51.946;10.558;2022-07-29T06:50:58;20.80;76.50
3190;DHT22;1606;51.946;10.558;2022-07-29T06:53:28;21.00;75.80
3190;DHT22;1606;51.946;10.558;2022-07-29T06:55:56;21.10;76.00
3190;DHT22;1606;51.946;10.558;2022-07-29T06:58:25;21.50;73.70
3190;DHT22;1606;51.946;10.558;2022-07-29T07:00:53;21.60;72.90
3190;DHT22;1606;51.946;10.558;2022-07-29T07:03:21;21.60;72.80
3190;DHT22;1606;51.946;10.558;2022-07-29T07:05:50;21.60;74.00
3190;DHT22;1606;51.946;10.558;2022-07-29T07:08:19;21.80;74.40
3190;DHT22;1606;51.946;10.558;2022-07-29T07:10:49;21.90;72.80
3190;DHT22;1606;51.946;10.558;2022-07-29T07:13:18;21.80;72.90
3190;DHT22;1606;51.946;10.558;2022-07-29T07:15:47;21.50;73.40
3190;DHT22;1606;51.946;10.558;2022-07-29T07:18:16;21.60;74.00
3190;DHT22;1606;51.946;10.558;2022-07-29T07:20:44;21.80;72.90
3190;DHT22;1606;51.946;10.558;2022-07-29T07:23:12;21.80;73.80
3190;DHT22;1606;51.946;10.558;2022-07-29T07:25:40;21.70;74.10
3190;DHT22;1606;51.946;10.558;2022-07-29T07:28:09;21.80;73.60
3190;DHT22;1606;51.946;10.558;2022-07-29T07:30:37;21.80;73.30
3190;DHT22;1606;51.946;10.558;2022-07-29T07:33:05;21.90;72.60
3190;DHT22;1606;51.946;10.558;2022-07-29T07:35:34;21.80;73.00
3190;DHT22;1606;51.946;10.558;2022-07-29T07:38:02;22.00;73.20
3190;DHT22;1606;51.946;10.558;2022-07-29T07:40:32;22.20;72.80
3190;DHT22;1606;51.946;10.558;2022-07-29T07:43:00;22.60;70.90
3190;DHT22;1606;51.946;10.558;2022-07-29T07:45:29;22.90;70.30
3190;DHT22;1606;51.946;10.558;2022-07-29T07:47:59;23.00;68.80
3190;DHT22;1606;51.946;10.558;2022-07-29T07:50:27;23.10;69.60
3190;DHT22;1606;51.946;10.558;2022-07-29T07:52:55;23.20;68.90
3190;DHT22;1606;51.946;10.558;2022-07-29T07:55:25;23.10;69.80
3190;DHT22;1606;51.946;10.558;2022-07-29T07:57:53;23.20;69.40
3190;DHT22;1606;51.946;10.558;2022-07-29T08:00:22;23.60;67.30
3190;DHT22;1606;51.946;10.558;2022-07-29T08:02:51;23.90;66.30
3190;DHT22;1606;51.946;10.558;2022-07-29T08:05:19;24.00;67.40
3190;DHT22;1606;51.946;10.558;2022-07-29T08:07:47;23.90;66.90
3190;DHT22;1606;51.946;10.558;2022-07-29T08:10:16;23.70;67.20
3190;DHT22;1606;51.946;10.558;2022-07-29T08:13:04;23.80;67.30
3190;DHT22;1606;51.946;10.558;2022-07-29T08:15:33;23.80;67.70
3190;DHT22;1606;51.946;10.558;2022-07-29T08:18:03;24.00;65.90
3190;DHT22;1606;51.946;10.558;2022-07-29T08:20:35;24.20;66.30
3190;DHT22;1606;51.946;10.558;2022-07-29T08:23:06;24.80;63.20
3190;DHT22;1606;51.946;10.558;2022-07-29T08:25:36;24.70;64.50
3190;DHT22;1606;51.946;10.558;2022-07-29T08:28:06;24.90;63.00
3190;DHT22;1606;51.946;10.558;2022-07-29T08:30:34;25.30;62.50
3190;DHT22;1606;51.946;10.558;2022-07-29T08:33:04;25.50;62.90
3190;DHT22;1606;51.946;10.558;2022-07-29T08:35:32;25.80;61.40
3190;DHT22;1606;51.946;10.558;2022-07-29T08:38:02;25.80;60.00
3190;DHT22;1606;51.946;10.558;2022-07-29T08:40:30;25.90;60.40
3190;DHT22;1606;51.946;10.558;2022-07-29T08:42:59;25.90;59.50
3190;DHT22;1606;51.946;10.558;2022-07-29T08:45:28;26.00;59.10
3190;DHT22;1606;51.946;10.558;2022-07-29T08:47:57;26.00;59.70
3190;DHT22;1606;51.946;10.558;2022-07-29T08:50:26;26.10;60.10
3190;DHT22;1606;51.946;10.558;2022-07-29T08:52:54;26.30;58.40
3190;DHT22;1606;51.946;10.558;2022-07-29T08:55:26;26.50;59.20
3190;DHT22;1606;51.946;10.558;2022-07-29T08:57:55;26.50;58.60
3190;DHT22;1606;51.946;10.558;2022-07-29T09:00:25;26.90;58.30
3190;DHT22;1606;51.946;10.558;2022-07-29T09:02:57;26.60;57.20
3190;DHT22;1606;51.946;10.558;2022-07-29T09:05:28;26.40;57.30
3190;DHT22;1606;51.946;10.558;2022-07-29T09:07:56;26.50;57.90
3190;DHT22;1606;51.946;10.558;2022-07-29T09:10:24;27.20;56.00
3190;DHT22;1606;51.946;10.558;2022-07-29T09:12:54;27.50;54.70
3190;DHT22;1606;51.946;10.558;2022-07-29T09:15:22;27.60;55.00
3190;DHT22;1606;51.946;10.558;2022-07-29T09:17:50;27.50;55.70
3190;DHT22;1606;51.946;10.558;2022-07-29T09:20:20;26.80;55.90
3190;DHT22;1606;51.946;10.558;2022-07-29T09:22:51;26.70;56.20
3190;DHT22;1606;51.946;10.558;2022-07-29T09:25:33;26.70;55.80
3190;DHT22;1606;51.946;10.558;2022-07-29T09:28:07;26.90;56.10
3190;DHT22;1606;51.946;10.558;2022-07-29T09:30:35;27.00;56.20
3190;DHT22;1606;51.946;10.558;2022-07-29T09:33:05;27.10;56.40
3190;DHT22;1606;51.946;10.558;2022-07-29T09:35:32;27.10;55.20
3190;DHT22;1606;51.946;10.558;2022-07-29T09:38:11;27.40;56.40
3190;DHT22;1606;51.946;10.558;2022-07-29T09:40:39;28.00;54.40
3190;DHT22;1606;51.946;10.558;2022-07-29T09:43:11;28.20;54.80
3190;DHT22;1606;51.946;10.558;2022-07-29T09:45:43;28.30;54.60
3190;DHT22;1606;51.946;10.558;2022-07-29T09:48:15;28.20;54.70
3190;DHT22;1606;51.946;10.558;2022-07-29T09:50:45;28.50;53.60
3190;DHT22;1606;51.946;10.558;2022-07-29T09:53:31;28.10;54.30
3190;DHT22;1606;51.946;10.558;2022-07-29T09:56:02;27.90;54.70
3190;DHT22;1606;51.946;10.558;2022-07-29T09:58:30;27.70;54.80
3190;DHT22;1606;51.946;10.558;2022-07-29T10:01:00;27.70;55.90
3190;DHT22;1606;51.946;10.558;2022-07-29T10:03:28;27.50;55.90
3190;DHT22;1606;51.946;10.558;2022-07-29T10:06:06;27.70;55.30
3190;DHT22;1606;51.946;10.558;2022-07-29T10:08:36;27.80;55.50
3190;DHT22;1606;51.946;10.558;2022-07-29T10:11:11;27.90;55.90
3190;DHT22;1606;51.946;10.558;2022-07-29T10:13:40;28.20;55.80
3190;DHT22;1606;51.946;10.558;2022-07-29T10:16:09;28.20;55.70
3190;DHT22;1606;51.946;10.558;2022-07-29T10:18:40;28.10;54.80
3190;DHT22;1606;51.946;10.558;2022-07-29T10:21:08;27.70;55.60
3190;DHT22;1606;51.946;10.558;2022-07-29T10:23:49;27.90;55.40
3190;DHT22;1606;51.946;10.558;2022-07-29T10:26:17;28.20;54.70
3190;DHT22;1606;51.946;10.558;2022-07-29T10:28:46;28.30;54.40
3190;DHT22;1606;51.946;10.558;2022-07-29T10:31:21;28.40;53.90
3190;DHT22;1606;51.946;10.558;2022-07-29T10:33:58;28.10;54.80
3190;DHT22;1606;51.946;10.558;2022-07-29T10:36:38;27.90;55.40
3190;DHT22;1606;51.946;10.558;2022-07-29T10:39:19;27.60;55.30
3190;DHT22;1606;51.946;10.558;2022-07-29T10:42:02;27.80;55.80
3190;DHT22;1606;51.946;10.558;2022-07-29T10:44:35;28.00;55.00
3190;DHT22;1606;51.946;10.558;2022-07-29T10:47:06;27.90;53.70
3190;DHT22;1606;51.946;10.558;2022-07-29T10:49:35;27.80;53.60
3190;DHT22;1606;51.946;10.558;2022-07-29T10:52:07;27.90;52.80
3190;DHT22;1606;51.946;10.558;2022-07-29T10:54:42;27.90;52.10
3190;DHT22;1606;51.946;10.558;2022-07-29T10:57:19;28.00;52.10
3190;DHT22;1606;51.946;10.558;2022-07-29T11:00:26;28.00;51.80
3190;DHT22;1606;51.946;10.558;2022-07-29T11:02:55;27.90;52.00
3190;DHT22;1606;51.946;10.558;2022-07-29T11:05:25;27.70;51.70
3190;DHT22;1606;51.946;10.558;2022-07-29T11:08:20;27.50;52.30
3190;DHT22;1606;51.946;10.558;2022-07-29T11:14:03;27.60;53.30
3190;DHT22;1606;51.946;10.558;2022-07-29T11:16:58;27.90;52.40
3190;DHT22;1606;51.946;10.558;2022-07-29T11:19:28;27.80;52.70
3190;DHT22;1606;51.946;10.558;2022-07-29T11:22:31;27.50;52.90
3190;DHT22;1606;51.946;10.558;2022-07-29T11:25:15;27.40;53.40
3190;DHT22;1606;51.946;10.558;2022-07-29T11:27:44;27.60;52.80
3190;DHT22;1606;51.946;10.558;2022-07-29T11:30:13;27.70;52.90
3190;DHT22;1606;51.946;10.558;2022-07-29T11:32:43;27.70;52.90
3190;DHT22;1606;51.946;10.558;2022-07-29T11:35:16;27.90;52.10
3190;DHT22;1606;51.946;10.558;2022-07-29T11:38:23;27.80;52.60
3190;DHT22;1606;51.946;10.558;2022-07-29T11:41:24;27.80;52.20
3190;DHT22;1606;51.946;10.558;2022-07-29T11:43:56;27.90;52.30
3190;DHT22;1606;51.946;10.558;2022-07-29T11:46:44;27.90;52.40
3190;DHT22;1606;51.946;10.558;2022-07-29T11:49:13;27.80;53.10
3190;DHT22;1606;51.946;10.558;2022-07-29T11:51:58;27.90;52.00
3190;DHT22;1606;51.946;10.558;2022-07-29T11:54:31;27.60;52.90
3190;DHT22;1606;51.946;10.558;2022-07-29T11:57:20;27.60;53.40
3190;DHT22;1606;51.946;10.558;2022-07-29T12:00:05;27.60;52.60
3190;DHT22;1606;51.946;10.558;2022-07-29T12:02:39;27.70;52.40
3190;DHT22;1606;51.946;10.558;2022-07-29T12:05:09;27.70;52.30
3190;DHT22;1606;51.946;10.558;2022-07-29T12:07:38;27.90;52.00
3190;DHT22;1606;51.946;10.558;2022-07-29T12:10:12;28.10;51.90
3190;DHT22;1606;51.946;10.558;2022-07-29T12:12:55;28.10;51.50
3190;DHT22;1606;51.946;10.558;2022-07-29T12:15:24;28.10;51.90
3190;DHT22;1606;51.946;10.558;2022-07-29T12:18:13;28.00;51.20
3190;DHT22;1606;51.946;10.558;2022-07-29T12:20:44;28.00;51.30
3190;DHT22;1606;51.946;10.558;2022-07-29T12:23:13;28.00;52.20
3190;DHT22;1606;51.946;10.558;2022-07-29T12:25:43;28.10;51.10
3190;DHT22;1606;51.946;10.558;2022-07-29T12:28:16;27.90;51.70
3190;DHT22;1606;51.946;10.558;2022-07-29T12:30:54;28.10;51.70
3190;DHT22;1606;51.946;10.558;2022-07-29T12:33:23;27.90;52.10
3190;DHT22;1606;51.946;10.558;2022-07-29T12:35:52;27.60;52.40
3190;DHT22;1606;51.946;10.558;2022-07-29T12:38:33;27.70;52.80
3190;DHT22;1606;51.946;10.558;2022-07-29T12:41:02;28.10;51.50
3190;DHT22;1606;51.946;10.558;2022-07-29T12:43:30;27.90;52.40
3190;DHT22;1606;51.946;10.558;2022-07-29T12:46:12;28.10;51.90
3190;DHT22;1606;51.946;10.558;2022-07-29T12:48:41;28.20;51.30
3190;DHT22;1606;51.946;10.558;2022-07-29T12:51:11;28.00;51.70
3190;DHT22;1606;51.946;10.558;2022-07-29T12:53:41;28.00;51.30
3190;DHT22;1606;51.946;10.558;2022-07-29T12:56:15;28.00;50.80
3190;DHT22;1606;51.946;10.558;2022-07-29T12:59:12;28.10;51.20
3190;DHT22;1606;51.946;10.558;2022-07-29T13:01:41;27.90;51.90
3190;DHT22;1606;51.946;10.558;2022-07-29T13:04:09;27.80;51.70
3190;DHT22;1606;51.946;10.558;2022-07-29T13:06:42;27.70;51.20
3190;DHT22;1606;51.946;10.558;2022-07-29T13:09:18;27.80;50.60
3190;DHT22;1606;51.946;10.558;2022-07-29T13:11:47;27.90;50.60
3190;DHT22;1606;51.946;10.558;2022-07-29T13:14:31;27.90;50.80
3190;DHT22;1606;51.946;10.558;2022-07-29T13:17:05;27.90;50.10
3190;DHT22;1606;51.946;10.558;2022-07-29T13:19:35;28.10;49.70
3190;DHT22;1606;51.946;10.558;2022-07-29T13:22:04;27.90;50.30
3190;DHT22;1606;51.946;10.558;2022-07-29T13:24:32;28.00;49.70
3190;DHT22;1606;51.946;10.558;2022-07-29T13:27:00;28.10;50.30
3190;DHT22;1606;51.946;10.558;2022-07-29T13:29:31;28.20;50.20
3190;DHT22;1606;51.946;10.558;2022-07-29T13:31:59;28.40;49.00
3190;DHT22;1606;51.946;10.558;2022-07-29T13:34:28;28.50;49.40
3190;DHT22;1606;51.946;10.558;2022-07-29T13:36:57;28.70;48.70
3190;DHT22;1606;51.946;10.558;2022-07-29T13:39:25;28.80;48.60
3190;DHT22;1606;51.946;10.558;2022-07-29T13:41:53;28.90;48.80
3190;DHT22;1606;51.946;10.558;2022-07-29T13:44:23;28.80;48.10
3190;DHT22;1606;51.946;10.558;2022-07-29T13:46:51;28.80;47.90
3190;DHT22;1606;51.946;10.558;2022-07-29T13:49:19;29.20;47.10
3190;DHT22;1606;51.946;10.558;2022-07-29T13:51:49;28.90;47.40
3190;DHT22;1606;51.946;10.558;2022-07-29T13:54:17;29.00;48.80
3190;DHT22;1606;51.946;10.558;2022-07-29T13:56:45;29.10;47.80
3190;DHT22;1606;51.946;10.558;2022-07-29T13:59:13;28.90;48.80
3190;DHT22;1606;51.946;10.558;2022-07-29T14:01:41;28.80;48.80
3190;DHT22;1606;51.946;10.558;2022-07-29T14:04:11;28.80;48.20
3190;DHT22;1606;51.946;10.558;2022-07-29T14:06:39;28.90;48.20
3190;DHT22;1606;51.946;10.558;2022-07-29T14:09:08;29.00;48.10
3190;DHT22;1606;51.946;10.558;2022-07-29T14:11:36;28.80;48.80
3190;DHT22;1606;51.946;10.558;2022-07-29T14:14:05;28.80;49.30
3190;DHT22;1606;51.946;10.558;2022-07-29T14:16:33;28.70;48.80
3190;DHT22;1606;51.946;10.558;2022-07-29T14:19:07;28.80;48.90
3190;DHT22;1606;51.946;10.558;2022-07-29T14:21:35;28.90;49.30
3190;DHT22;1606;51.946;10.558;2022-07-29T14:24:08;28.70;48.90
3190;DHT22;1606;51.946;10.558;2022-07-29T14:26:47;28.60;49.10
3190;DHT22;1606;51.946;10.558;2022-07-29T14:29:15;28.50;49.60
3190;DHT22;1606;51.946;10.558;2022-07-29T14:31:43;28.50;50.50
3190;DHT22;1606;51.946;10.558;2022-07-29T14:34:11;28.60;49.50
3190;DHT22;1606;51.946;10.558;2022-07-29T14:36:39;28.60;49.60
3190;DHT22;1606;51.946;10.558;2022-07-29T14:39:08;28.60;49.40
3190;DHT22;1606;51.946;10.558;2022-07-29T14:41:36;28.70;48.40
3190;DHT22;1606;51.946;10.558;2022-07-29T14:44:04;28.60;48.80
3190;DHT22;1606;51.946;10.558;2022-07-29T14:46:32;28.40;49.20
3190;DHT22;1606;51.946;10.558;2022-07-29T14:49:00;28.30;49.80
3190;DHT22;1606;51.946;10.558;2022-07-29T14:51:28;28.40;48.60
3190;DHT22;1606;51.946;10.558;2022-07-29T14:53:58;28.40;49.60
3190;DHT22;1606;51.946;10.558;2022-07-29T14:56:27;28.60;50.10
3190;DHT22;1606;51.946;10.558;2022-07-29T14:59:12;28.60;49.00
3190;DHT22;1606;51.946;10.558;2022-07-29T15:01:41;28.70;49.10
3190;DHT22;1606;51.946;10.558;2022-07-29T15:04:09;28.60;48.50
3190;DHT22;1606;51.946;10.558;2022-07-29T15:06:36;28.60;48.80
3190;DHT22;1606;51.946;10.558;2022-07-29T15:09:04;28.60;48.40
3190;DHT22;1606;51.946;10.558;2022-07-29T15:11:34;28.50;47.60
3190;DHT22;1606;51.946;10.558;2022-07-29T15:14:04;28.30;48.40
3190;DHT22;1606;51.946;10.558;2022-07-29T15:16:34;28.60;48.70
3190;DHT22;1606;51.946;10.558;2022-07-29T15:19:03;28.60;48.20
3190;DHT22;1606;51.946;10.558;2022-07-29T15:21:30;28.40;48.70
3190;DHT22;1606;51.946;10.558;2022-07-29T15:23:58;28.80;48.80
3190;DHT22;1606;51.946;10.558;2022-07-29T15:26:26;28.70;49.60
3190;DHT22;1606;51.946;10.558;2022-07-29T15:28:55;28.50;48.50
3190;DHT22;1606;51.946;10.558;2022-07-29T15:31:23;28.30;48.90
3190;DHT22;1606;51.946;10.558;2022-07-29T15:33:51;28.50;49.40
3190;DHT22;1606;51.946;10.558;2022-07-29T15:36:25;28.40;48.80
3190;DHT22;1606;51.946;10.558;2022-07-29T15:39:13;28.60;49.20
3190;DHT22;1606;51.946;10.558;2022-07-29T15:41:40;28.40;49.60
3190;DHT22;1606;51.946;10.558;2022-07-29T15:44:09;28.40;49.10
3190;DHT22;1606;51.946;10.558;2022-07-29T15:46:37;28.30;49.10
3190;DHT22;1606;51.946;10.558;2022-07-29T15:49:23;28.30;49.70
3190;DHT22;1606;51.946;10.558;2022-07-29T15:52:15;28.20;49.60
3190;DHT22;1606;51.946;10.558;2022-07-29T15:54:43;28.30;50.20
3190;DHT22;1606;51.946;10.558;2022-07-29T15:57:11;28.60;49.60
3190;DHT22;1606;51.946;10.558;2022-07-29T15:59:40;28.80;49.50
3190;DHT22;1606;51.946;10.558;2022-07-29T16:02:08;28.80;49.30
3190;DHT22;1606;51.946;10.558;2022-07-29T16:04:36;28.80;49.80
3190;DHT22;1606;51.946;10.558;2022-07-29T16:07:04;29.00;49.80
3190;DHT22;1606;51.946;10.558;2022-07-29T16:09:32;28.90;49.10
3190;DHT22;1606;51.946;10.558;2022-07-29T16:12:00;28.60;50.10
3190;DHT22;1606;51.946;10.558;2022-07-29T16:14:30;28.70;49.90